createdAt,value
2023-03-19T00:00:34.958Z,8.00
2023-03-19T00:05:36.780Z,4.95
2023-03-19T00:10:39.669Z,6.05
2023-03-19T00:15:41.674Z,5.28
2023-03-19T00:20:43.684Z,6.70
2023-03-19T00:25:45.557Z,6.40
2023-03-19T00:30:47.351Z,4.70
2023-03-19T00:35:49.258Z,5.88
2023-03-19T00:40:51.038Z,6.22
2023-03-19T00:45:53.043Z,6.30
2023-03-19T00:50:54.979Z,6.07
2023-03-19T00:55:56.738Z,7.68
2023-03-19T01:00:58.564Z,5.75
2023-03-19T01:06:00.738Z,4.20
2023-03-19T01:11:08.184Z,3.63
2023-03-19T01:16:10.398Z,4.68
2023-03-19T01:21:12.192Z,4.35
2023-03-19T01:26:13.981Z,5.20
2023-03-19T01:31:16.625Z,3.47
2023-03-19T01:36:18.465Z,7.00
2023-03-19T01:41:21.045Z,4.72
2023-03-19T01:46:36.605Z,7.97
2023-03-19T01:51:42.194Z,4.38
2023-03-19T01:56:47.064Z,4.30
2023-03-19T02:02:03.474Z,5.03
2023-03-19T02:07:07.638Z,4.80
2023-03-19T02:12:09.920Z,5.72
2023-03-19T02:17:11.801Z,6.85
2023-03-19T02:22:16.928Z,3.70
2023-03-19T02:27:19.023Z,4.03
2023-03-19T02:32:20.989Z,5.22
2023-03-19T02:37:33.727Z,4.55
2023-03-19T02:42:35.879Z,5.10
2023-03-19T02:47:37.804Z,6.63
2023-03-19T02:52:39.913Z,5.93
2023-03-19T02:57:41.690Z,7.85
2023-03-19T03:02:43.474Z,5.60
2023-03-19T03:07:45.360Z,6.55
2023-03-19T03:12:47.153Z,8.68
2023-03-19T03:17:49.210Z,6.25
2023-03-19T03:22:52.042Z,8.30
2023-03-19T03:27:53.898Z,7.57
2023-03-19T03:32:55.782Z,8.90
2023-03-19T03:37:58.057Z,12.20
2023-03-19T03:42:59.894Z,10.55
2023-03-19T03:48:01.909Z,9.73
2023-03-19T03:53:03.957Z,9.20
2023-03-19T03:58:05.764Z,10.93
2023-03-19T04:03:07.867Z,9.38
2023-03-19T04:08:09.910Z,9.88
2023-03-19T04:13:12.659Z,11.18
2023-03-19T04:18:14.721Z,12.35
2023-03-19T04:23:16.992Z,14.57
2023-03-19T04:28:18.837Z,15.18
2023-03-19T04:33:20.591Z,17.80
2023-03-19T04:38:23.204Z,15.32
2023-03-19T04:43:25.765Z,14.52
2023-03-19T04:48:28.402Z,20.73
2023-03-19T04:53:30.701Z,14.60
2023-03-19T04:58:32.753Z,15.82
2023-03-19T05:03:34.643Z,13.95
2023-03-19T05:08:36.742Z,19.85
2023-03-19T05:13:38.714Z,15.85
2023-03-19T05:18:41.383Z,14.95
2023-03-19T05:23:43.841Z,13.77
2023-03-19T05:28:45.611Z,12.63
2023-03-19T05:33:47.392Z,15.27
2023-03-19T05:38:49.125Z,13.90
2023-03-19T05:43:51.407Z,11.32
2023-03-19T05:48:53.178Z,10.98
2023-03-19T05:53:54.971Z,13.57
2023-03-19T05:58:56.773Z,12.77
2023-03-19T06:03:58.694Z,12.63
2023-03-19T06:09:00.590Z,13.80
2023-03-19T06:14:02.412Z,14.88
2023-03-19T06:19:04.267Z,17.40
2023-03-19T06:24:06.922Z,15.75
2023-03-19T06:29:08.778Z,11.93
2023-03-19T06:34:10.584Z,12.27
2023-03-19T06:39:12.833Z,14.52
2023-03-19T06:44:14.788Z,9.25
2023-03-19T06:49:16.729Z,12.05
2023-03-19T06:54:18.597Z,11.82
2023-03-19T06:59:20.464Z,9.60
2023-03-19T07:04:22.588Z,14.75
2023-03-19T07:09:24.431Z,14.20
2023-03-19T07:14:26.452Z,12.50
2023-03-19T07:19:28.251Z,18.63
2023-03-19T07:24:30.013Z,15.45
2023-03-19T07:29:31.796Z,20.88
2023-03-19T07:34:33.608Z,21.80
2023-03-19T07:39:35.384Z,18.85
2023-03-19T07:44:37.130Z,26.67
2023-03-19T07:49:38.946Z,20.95
2023-03-19T07:54:40.874Z,30.35
2023-03-19T07:59:42.800Z,19.40
2023-03-19T08:04:44.771Z,21.38
2023-03-19T08:09:46.554Z,25.23
2023-03-19T08:14:48.308Z,24.58
2023-03-19T08:19:50.096Z,21.73
2023-03-19T08:24:51.931Z,17.77
2023-03-19T08:29:53.669Z,27.65
2023-03-19T08:34:55.867Z,30.70
2023-03-19T08:39:57.727Z,21.17
2023-03-19T08:44:59.516Z,23.30
2023-03-19T08:50:01.531Z,17.70
2023-03-19T08:55:03.745Z,18.50
2023-03-19T09:00:06.167Z,16.98
2023-03-19T09:05:08.372Z,11.55
2023-03-19T09:10:10.683Z,14.70
2023-03-19T09:15:12.471Z,14.80
2023-03-19T09:20:14.678Z,18.38
2023-03-19T09:25:16.538Z,15.05
2023-03-19T09:30:18.751Z,14.57
2023-03-19T09:35:20.538Z,14.27
2023-03-19T09:40:27.633Z,13.00
2023-03-19T09:45:29.953Z,5.68
2023-03-19T09:50:34.804Z,7.22
2023-03-19T09:55:49.818Z,10.07
2023-03-19T10:00:53.822Z,13.50
2023-03-19T10:06:20.335Z,13.77
2023-03-19T10:11:41.539Z,10.52
2023-03-19T10:16:47.290Z,5.13
2023-03-19T10:22:03.616Z,12.05
2023-03-19T10:27:14.191Z,6.40
2023-03-19T10:32:20.518Z,5.68
2023-03-19T10:37:28.965Z,10.25
2023-03-19T10:43:04.581Z,17.58
2023-03-19T10:48:12.397Z,9.13
2023-03-19T10:53:14.136Z,9.82
2023-03-19T10:58:19.066Z,10.52
2023-03-19T11:03:48.162Z,4.35
2023-03-19T11:08:57.312Z,8.02
2023-03-19T11:13:59.743Z,11.50
2023-03-19T11:19:01.561Z,7.32
2023-03-19T11:24:04.341Z,11.65
2023-03-19T11:29:06.167Z,4.20
2023-03-19T11:34:47.890Z,6.45
2023-03-19T11:40:01.634Z,9.98
2023-03-19T11:45:12.391Z,5.53
2023-03-19T11:50:25.212Z,8.52
2023-03-19T11:55:33.191Z,6.80
2023-03-19T12:00:52.306Z,14.48
2023-03-19T12:06:18.289Z,12.55
2023-03-19T12:11:33.724Z,12.20
2023-03-19T12:16:50.510Z,8.40
2023-03-19T12:22:28.481Z,11.82
2023-03-19T12:27:55.558Z,6.32
2023-03-19T12:33:27.132Z,9.95
2023-03-19T12:38:49.097Z,19.08
2023-03-19T12:44:09.713Z,10.13
2023-03-19T12:54:19.684Z,8.13
2023-03-19T12:59:51.046Z,12.68
2023-03-19T13:05:23.337Z,11.57
2023-03-19T13:10:26.736Z,10.10
2023-03-19T13:15:34.967Z,11.25
2023-03-19T13:20:48.977Z,7.28
2023-03-19T13:25:52.898Z,6.88
2023-03-19T13:31:06.781Z,8.00
2023-03-19T13:36:15.031Z,9.98
2023-03-19T13:41:35.938Z,8.65
2023-03-19T13:46:40.685Z,12.32
2023-03-19T13:51:47.664Z,13.13
2023-03-19T13:57:06.838Z,5.57
2023-03-19T14:02:27.039Z,3.63
2023-03-19T14:07:37.048Z,3.25
2023-03-19T14:12:41.390Z,7.43
2023-03-19T14:18:00.460Z,7.80
2023-03-19T14:23:08.970Z,7.20
2023-03-19T14:28:11.181Z,7.28
2023-03-19T14:33:20.296Z,10.98
2023-03-19T14:38:44.187Z,9.00
2023-03-19T14:44:13.548Z,8.82
2023-03-19T14:49:46.485Z,8.70
2023-03-19T14:54:57.461Z,6.90
2023-03-19T15:00:06.589Z,7.38
2023-03-19T15:05:29.828Z,8.65
2023-03-19T15:10:42.603Z,9.20
2023-03-19T15:16:09.766Z,7.13
2023-03-19T15:21:12.319Z,9.05
2023-03-19T15:26:14.308Z,5.55
2023-03-19T15:31:31.852Z,10.07
2023-03-19T15:36:38.864Z,9.85
2023-03-19T15:41:46.390Z,9.07
2023-03-19T15:46:49.424Z,9.88
2023-03-19T15:51:55.284Z,5.93
2023-03-19T15:56:58.058Z,4.57
2023-03-19T16:02:01.402Z,4.80
2023-03-19T16:07:03.416Z,5.70
2023-03-19T16:12:36.696Z,3.58
2023-03-19T16:17:40.255Z,5.47
2023-03-19T16:22:48.110Z,3.72
2023-03-19T16:27:51.509Z,7.97
2023-03-19T16:33:01.480Z,6.85
2023-03-19T16:38:52.241Z,7.18
2023-03-19T16:43:54.721Z,8.98
2023-03-19T16:48:56.464Z,12.90
2023-03-19T16:54:01.920Z,10.40
2023-03-19T16:59:03.887Z,10.30
2023-03-19T17:04:13.698Z,11.75
2023-03-19T17:09:15.754Z,13.60
2023-03-19T17:14:21.035Z,9.90
2023-03-19T17:19:34.853Z,10.25
2023-03-19T17:24:36.724Z,11.05
2023-03-19T17:29:38.785Z,10.65
2023-03-19T17:34:40.580Z,13.90
2023-03-19T17:39:43.328Z,15.40
2023-03-19T17:44:45.762Z,15.98
2023-03-19T17:49:47.830Z,17.33
2023-03-19T17:54:49.630Z,17.70
2023-03-19T17:59:51.419Z,9.18
2023-03-19T18:04:53.369Z,14.02
2023-03-19T18:09:55.424Z,8.77
2023-03-19T18:14:57.309Z,7.32
2023-03-19T18:19:59.158Z,9.77
2023-03-19T18:25:01.608Z,9.05
2023-03-19T18:30:03.728Z,6.00
2023-03-19T18:35:06.235Z,10.43
2023-03-19T18:40:13.341Z,9.35
2023-03-19T18:45:17.470Z,12.13
2023-03-19T18:50:25.970Z,8.65
2023-03-19T18:55:30.030Z,9.23
2023-03-19T19:00:34.359Z,8.23
2023-03-19T19:05:36.329Z,8.35
2023-03-19T19:10:40.391Z,6.90
2023-03-19T19:15:42.351Z,9.57
2023-03-19T19:20:46.118Z,10.52
2023-03-19T19:25:52.395Z,11.93
2023-03-19T19:30:57.460Z,17.33
2023-03-19T19:35:59.511Z,24.45
2023-03-19T19:41:01.432Z,14.73
2023-03-19T19:46:04.701Z,18.15
2023-03-19T19:51:08.318Z,14.45
2023-03-19T19:56:16.073Z,14.63
2023-03-19T20:01:22.918Z,8.57
2023-03-19T20:06:24.800Z,8.23
2023-03-19T20:11:27.131Z,9.38
2023-03-19T20:16:29.127Z,7.75
2023-03-19T20:21:32.572Z,10.05
2023-03-19T20:26:35.067Z,11.85
2023-03-19T20:31:37.580Z,11.02
2023-03-19T20:36:39.812Z,8.07
2023-03-19T20:41:42.083Z,9.80
2023-03-19T20:46:43.976Z,14.10
2023-03-19T20:51:45.824Z,12.57
2023-03-19T20:56:48.031Z,9.65
2023-03-19T21:01:50.394Z,11.93
2023-03-19T21:06:54.128Z,12.68
2023-03-19T21:11:56.308Z,14.80
2023-03-19T21:16:58.993Z,20.45
2023-03-19T21:22:00.851Z,12.98
2023-03-19T21:27:04.057Z,12.70
2023-03-19T21:32:11.315Z,15.60
2023-03-19T21:37:13.080Z,14.45
2023-03-19T21:42:21.191Z,13.38
2023-03-19T21:47:22.986Z,13.77
2023-03-19T21:52:24.898Z,17.15
2023-03-19T21:57:26.662Z,17.52
2023-03-19T22:02:28.394Z,12.98
2023-03-19T22:07:30.662Z,14.13
2023-03-19T22:12:34.260Z,12.95
2023-03-19T22:17:36.004Z,13.70
2023-03-19T22:22:37.760Z,14.07
2023-03-19T22:27:41.591Z,11.95
2023-03-19T22:32:43.382Z,13.93
2023-03-19T22:37:46.010Z,12.93
2023-03-19T22:42:48.957Z,14.07
2023-03-19T22:47:51.247Z,19.58
2023-03-19T22:52:53.804Z,15.93
2023-03-19T22:57:55.763Z,13.13
2023-03-19T23:02:57.827Z,14.27
2023-03-19T23:07:59.942Z,14.20
2023-03-19T23:13:02.861Z,16.20
2023-03-19T23:18:09.615Z,13.32
2023-03-19T23:23:13.396Z,10.88
2023-03-19T23:28:30.891Z,12.18
2023-03-19T23:33:32.742Z,13.45
2023-03-19T23:38:34.661Z,13.82
2023-03-19T23:43:36.689Z,11.15
2023-03-19T23:48:41.289Z,15.88
2023-03-19T23:53:43.989Z,10.73
2023-03-19T23:58:48.278Z,10.98
